createdAt,value
2023-04-02T00:00:34.401Z,0.00
2023-04-02T00:01:34.347Z,0.00
2023-04-02T00:02:34.457Z,0.00
2023-04-02T00:03:34.464Z,0.00
2023-04-02T00:04:34.673Z,0.00
2023-04-02T00:05:34.830Z,0.00
2023-04-02T00:06:34.288Z,0.00
2023-04-02T00:07:34.284Z,0.00
2023-04-02T00:08:34.292Z,0.00
2023-04-02T00:09:34.302Z,0.00
2023-04-02T00:10:34.510Z,0.00
2023-04-02T00:11:34.456Z,0.00
2023-04-02T00:12:34.221Z,0.00
2023-04-02T00:13:34.326Z,0.00
2023-04-02T00:14:34.234Z,0.00
2023-04-02T00:15:34.524Z,0.00
2023-04-02T00:16:34.264Z,0.00
2023-04-02T00:17:34.255Z,0.00
2023-04-02T00:18:34.158Z,0.00
2023-04-02T00:19:34.268Z,0.00
2023-04-02T00:20:34.070Z,0.00
2023-04-02T00:21:34.180Z,0.00
2023-04-02T00:22:34.415Z,0.00
2023-04-02T00:23:34.193Z,0.00
2023-04-02T00:24:34.099Z,0.00
2023-04-02T00:25:34.316Z,0.00
2023-04-02T00:26:34.221Z,0.00
2023-04-02T00:27:34.222Z,0.00
2023-04-02T00:28:34.331Z,0.00
2023-04-02T00:29:34.136Z,0.00
2023-04-02T00:30:34.044Z,0.00
2023-04-02T00:31:34.076Z,0.00
2023-04-02T00:32:33.983Z,0.00
2023-04-02T00:33:34.061Z,0.00
2023-04-02T00:34:34.274Z,0.00
2023-04-02T00:35:34.316Z,0.00
2023-04-02T00:37:27.207Z,0.00
2023-04-02T00:38:27.958Z,0.00
2023-04-02T00:39:27.966Z,0.00
2023-04-02T00:40:28.172Z,0.00
2023-04-02T00:41:27.972Z,0.00
2023-04-02T00:42:27.989Z,0.00
2023-04-02T00:43:27.938Z,0.00
2023-04-02T00:44:27.790Z,0.00
2023-04-02T00:45:27.897Z,0.00
2023-04-02T00:46:28.058Z,0.00
2023-04-02T00:47:27.923Z,0.00
2023-04-02T00:48:27.887Z,0.00
2023-04-02T00:49:27.825Z,0.00
2023-04-02T00:50:27.833Z,0.00
2023-04-02T00:51:27.842Z,0.00
2023-04-02T00:52:28.049Z,0.00
2023-04-02T00:53:27.856Z,0.00
2023-04-02T00:54:27.764Z,0.00
2023-04-02T00:55:27.766Z,0.00
2023-04-02T00:56:27.677Z,0.00
2023-04-02T00:57:27.810Z,0.00
2023-04-02T00:58:28.009Z,0.00
2023-04-02T00:59:27.796Z,0.00
2023-04-02T01:00:27.703Z,0.00
2023-04-02T01:01:27.841Z,0.00
2023-04-02T01:02:28.077Z,0.00
2023-04-02T01:03:27.790Z,0.00
2023-04-02T01:04:27.930Z,0.00
2023-04-02T01:05:27.731Z,0.00
2023-04-02T01:06:27.639Z,0.00
2023-04-02T01:07:27.645Z,0.00
2023-04-02T01:08:27.561Z,0.00
2023-04-02T01:09:27.766Z,0.00
2023-04-02T01:10:27.868Z,0.00
2023-04-02T01:11:27.670Z,0.00
2023-04-02T01:12:27.576Z,0.00
2023-04-02T01:13:27.582Z,0.00
2023-04-02T01:14:27.600Z,0.00
2023-04-02T01:15:27.596Z,0.00
2023-04-02T01:16:27.547Z,0.00
2023-04-02T01:17:27.520Z,0.00
2023-04-02T01:18:27.519Z,0.00
2023-04-02T01:19:27.532Z,0.00
2023-04-02T01:20:27.433Z,0.00
2023-04-02T01:21:27.538Z,0.00
2023-04-02T01:22:27.849Z,0.00
2023-04-02T01:23:27.551Z,0.00
2023-04-02T01:24:27.446Z,0.00
2023-04-02T01:25:27.563Z,0.00
2023-04-02T01:26:27.466Z,0.00
2023-04-02T01:27:27.476Z,0.00
2023-04-02T01:28:27.595Z,0.00
2023-04-02T01:29:27.389Z,0.00
2023-04-02T01:30:27.392Z,0.00
2023-04-02T01:31:27.516Z,0.00
2023-04-02T01:32:27.316Z,0.00
2023-04-02T01:33:27.413Z,0.00
2023-04-02T01:34:27.626Z,0.00
2023-04-02T01:35:27.530Z,0.00
2023-04-02T01:36:28.210Z,0.00
2023-04-02T01:37:36.047Z,0.00
2023-04-02T01:38:27.405Z,0.00
2023-04-02T01:39:27.361Z,0.00
2023-04-02T01:40:27.407Z,0.00
2023-04-02T01:41:27.166Z,0.00
2023-04-02T01:42:27.136Z,0.00
2023-04-02T01:43:27.121Z,0.00
2023-04-02T01:44:27.115Z,0.00
2023-04-02T01:45:27.097Z,0.00
2023-04-02T01:46:27.260Z,0.00
2023-04-02T01:47:27.102Z,0.00
2023-04-02T01:48:27.066Z,0.00
2023-04-02T01:49:27.054Z,0.00
2023-04-02T01:50:27.042Z,0.00
2023-04-02T01:51:27.034Z,0.00
2023-04-02T01:52:27.161Z,0.00
2023-04-02T01:53:27.022Z,0.00
2023-04-02T01:54:27.008Z,0.00
2023-04-02T01:55:26.992Z,0.00
2023-04-02T01:56:26.987Z,0.00
2023-04-02T01:57:27.009Z,0.00
2023-04-02T01:58:27.115Z,0.00
2023-04-02T01:59:26.954Z,0.00
2023-04-02T02:00:26.975Z,0.00
2023-04-02T02:01:26.936Z,0.00
2023-04-02T02:02:27.007Z,0.00
2023-04-02T02:03:26.909Z,0.00
2023-04-02T02:04:27.048Z,0.00
2023-04-02T02:05:26.893Z,0.00
2023-04-02T02:06:26.883Z,0.00
2023-04-02T02:07:26.867Z,0.00
2023-04-02T02:08:26.865Z,0.00
2023-04-02T02:09:26.845Z,0.00
2023-04-02T02:10:26.878Z,0.00
2023-04-02T02:11:26.835Z,0.00
2023-04-02T02:12:26.820Z,0.00
2023-04-02T02:13:26.803Z,0.00
2023-04-02T02:14:26.798Z,0.00
2023-04-02T02:15:26.790Z,0.00
2023-04-02T02:16:26.920Z,0.00
2023-04-02T02:17:26.799Z,0.00
2023-04-02T02:18:26.759Z,0.00
2023-04-02T02:19:26.739Z,0.00
2023-04-02T02:20:26.755Z,0.00
2023-04-02T02:21:26.736Z,0.00
2023-04-02T02:22:26.761Z,0.00
2023-04-02T02:23:26.720Z,0.00
2023-04-02T02:24:26.719Z,0.00
2023-04-02T02:25:26.689Z,0.00
2023-04-02T02:26:26.684Z,0.00
2023-04-02T02:27:26.672Z,0.00
2023-04-02T02:28:26.779Z,0.00
2023-04-02T02:29:26.651Z,0.00
2023-04-02T02:30:26.636Z,0.00
2023-04-02T02:31:26.637Z,0.00
2023-04-02T02:32:26.650Z,0.00
2023-04-02T02:33:26.613Z,0.00
2023-04-02T02:34:26.668Z,0.00
2023-04-02T02:35:26.579Z,0.00
2023-04-02T02:36:26.630Z,0.00
2023-04-02T02:37:33.931Z,0.00
2023-04-02T02:38:26.556Z,0.00
2023-04-02T02:39:26.550Z,0.00
2023-04-02T02:40:26.661Z,0.00
2023-04-02T02:41:26.562Z,0.00
2023-04-02T02:42:26.523Z,0.00
2023-04-02T02:43:26.501Z,0.00
2023-04-02T02:44:26.489Z,0.00
2023-04-02T02:45:26.482Z,0.00
2023-04-02T02:46:26.740Z,0.00
2023-04-02T02:47:26.518Z,0.00
2023-04-02T02:48:26.440Z,0.00
2023-04-02T02:49:26.441Z,0.00
2023-04-02T02:50:26.424Z,0.00
2023-04-02T02:51:26.415Z,0.00
2023-04-02T02:52:26.526Z,0.00
2023-04-02T02:53:26.404Z,0.00
2023-04-02T02:54:26.383Z,0.00
2023-04-02T02:55:26.373Z,0.00
2023-04-02T02:56:26.354Z,0.00
2023-04-02T02:57:26.421Z,0.00
2023-04-02T02:58:26.488Z,0.00
2023-04-02T02:59:26.353Z,0.00
2023-04-02T03:00:26.329Z,0.00
2023-04-02T03:01:26.345Z,0.00
2023-04-02T03:02:26.339Z,0.00
2023-04-02T03:03:26.521Z,0.00
2023-04-02T03:04:26.478Z,0.00
2023-04-02T03:05:26.268Z,0.00
2023-04-02T03:06:26.255Z,0.00
2023-04-02T03:07:26.242Z,0.00
2023-04-02T03:08:26.232Z,0.00
2023-04-02T03:09:26.226Z,0.00
2023-04-02T03:10:26.334Z,0.00
2023-04-02T03:11:26.200Z,0.00
2023-04-02T03:12:26.214Z,0.00
2023-04-02T03:13:26.237Z,0.00
2023-04-02T03:14:26.176Z,0.00
2023-04-02T03:15:26.209Z,0.00
2023-04-02T03:16:26.388Z,0.00
2023-04-02T03:17:26.190Z,0.00
2023-04-02T03:18:26.130Z,0.00
2023-04-02T03:19:26.123Z,0.00
2023-04-02T03:20:26.104Z,0.00
2023-04-02T03:21:26.104Z,0.00
2023-04-02T03:22:26.286Z,0.00
2023-04-02T03:23:26.089Z,0.00
2023-04-02T03:24:26.065Z,0.00
2023-04-02T03:25:26.067Z,0.00
2023-04-02T03:26:26.050Z,0.00
2023-04-02T03:27:26.044Z,0.00
2023-04-02T03:28:26.084Z,0.00
2023-04-02T03:29:26.021Z,0.00
2023-04-02T03:30:25.998Z,0.00
2023-04-02T03:31:26.029Z,0.00
2023-04-02T03:32:26.007Z,0.00
2023-04-02T03:33:25.995Z,0.00
2023-04-02T03:34:26.116Z,0.00
2023-04-02T03:35:25.986Z,0.00
2023-04-02T03:36:25.943Z,0.00
2023-04-02T03:37:32.931Z,0.00
2023-04-02T03:38:25.941Z,0.00
2023-04-02T03:39:25.918Z,0.00
2023-04-02T03:40:25.935Z,0.00
2023-04-02T03:41:25.894Z,0.00
2023-04-02T03:42:25.884Z,0.00
2023-04-02T03:43:25.880Z,0.00
2023-04-02T03:44:25.863Z,0.00
2023-04-02T03:45:25.863Z,0.00
2023-04-02T03:46:25.914Z,0.00
2023-04-02T03:47:25.844Z,0.00
2023-04-02T03:48:25.835Z,0.00
2023-04-02T03:49:25.822Z,0.00
2023-04-02T03:50:25.792Z,0.00
2023-04-02T03:51:25.788Z,0.00
2023-04-02T03:52:26.038Z,0.00
2023-04-02T03:53:25.774Z,0.00
2023-04-02T03:54:25.769Z,0.00
2023-04-02T03:55:25.753Z,0.00
2023-04-02T03:56:25.733Z,0.00
2023-04-02T03:57:25.811Z,0.00
2023-04-02T03:58:25.870Z,0.00
2023-04-02T03:59:25.711Z,0.00
2023-04-02T04:00:25.721Z,0.00
2023-04-02T04:01:25.720Z,0.00
2023-04-02T04:02:25.779Z,0.00
2023-04-02T04:03:25.669Z,0.00
2023-04-02T04:04:25.764Z,0.00
2023-04-02T04:05:25.653Z,0.00
2023-04-02T04:06:25.571Z,1.00
2023-04-02T04:07:25.637Z,0.00
2023-04-02T04:08:25.623Z,0.00
2023-04-02T04:09:25.601Z,0.00
2023-04-02T04:10:25.726Z,0.00
2023-04-02T04:11:25.574Z,1.00
2023-04-02T04:12:25.526Z,1.00
2023-04-02T04:13:25.518Z,1.00
2023-04-02T04:14:25.547Z,0.00
2023-04-02T04:15:25.544Z,0.00
2023-04-02T04:16:25.576Z,0.00
2023-04-02T04:17:25.531Z,0.00
2023-04-02T04:18:25.463Z,2.00
2023-04-02T04:19:25.448Z,1.00
2023-04-02T04:20:25.438Z,1.00
2023-04-02T04:21:25.428Z,1.00
2023-04-02T04:22:25.560Z,1.00
2023-04-02T04:23:25.461Z,0.00
2023-04-02T04:24:25.454Z,0.00
2023-04-02T04:25:25.413Z,2.00
2023-04-02T04:26:25.371Z,1.00
2023-04-02T04:27:25.362Z,1.00
2023-04-02T04:28:25.502Z,1.00
2023-04-02T04:29:25.340Z,6.00
2023-04-02T04:30:25.329Z,4.00
2023-04-02T04:31:25.979Z,3.00
2023-04-02T04:32:25.320Z,1.00
2023-04-02T04:33:25.376Z,4.00
2023-04-02T04:34:25.441Z,8.00
2023-04-02T04:35:25.280Z,5.00
2023-04-02T04:36:25.268Z,5.00
2023-04-02T04:37:25.305Z,2.00
2023-04-02T04:38:25.249Z,3.00
2023-04-02T04:39:25.237Z,5.00
2023-04-02T04:40:25.376Z,7.00
2023-04-02T04:41:25.225Z,9.00
2023-04-02T04:42:25.210Z,14.00
2023-04-02T04:43:25.197Z,12.00
2023-04-02T04:44:25.186Z,11.00
2023-04-02T04:45:25.205Z,11.00
2023-04-02T04:46:25.468Z,12.00
2023-04-02T04:47:25.166Z,12.00
2023-04-02T04:48:25.140Z,14.00
2023-04-02T04:49:25.143Z,13.00
2023-04-02T04:50:25.131Z,13.00
2023-04-02T04:51:25.131Z,15.00
2023-04-02T04:52:25.362Z,21.00
2023-04-02T04:53:25.089Z,20.00
2023-04-02T04:54:25.086Z,17.00
2023-04-02T04:55:25.080Z,19.00
2023-04-02T04:56:25.081Z,18.00
2023-04-02T04:57:25.105Z,14.00
2023-04-02T04:58:25.083Z,16.00
2023-04-02T04:59:25.039Z,16.00
2023-04-02T05:00:25.043Z,18.00
2023-04-02T05:01:25.070Z,21.00
2023-04-02T05:02:25.057Z,23.00
2023-04-02T05:03:24.996Z,29.00
2023-04-02T05:04:25.162Z,28.00
2023-04-02T05:05:24.978Z,26.00
2023-04-02T05:06:24.978Z,27.00
2023-04-02T05:07:24.961Z,27.00
2023-04-02T05:08:24.942Z,29.00
2023-04-02T05:09:24.934Z,31.00
2023-04-02T05:10:25.070Z,31.00
2023-04-02T05:11:24.913Z,32.00
2023-04-02T05:12:24.911Z,33.00
2023-04-02T05:13:24.889Z,36.00
2023-04-02T05:14:24.873Z,39.00
2023-04-02T05:15:24.876Z,39.00
2023-04-02T05:16:25.033Z,37.00
2023-04-02T05:17:24.889Z,38.00
2023-04-02T05:18:24.851Z,38.00
2023-04-02T05:19:24.848Z,39.00
2023-04-02T05:20:24.821Z,39.00
2023-04-02T05:21:24.818Z,41.00
2023-04-02T05:22:24.943Z,39.00
2023-04-02T05:23:24.782Z,36.00
2023-04-02T05:24:24.770Z,41.00
2023-04-02T05:25:24.773Z,45.00
2023-04-02T05:26:24.770Z,44.00
2023-04-02T05:27:24.755Z,44.00
2023-04-02T05:28:24.859Z,48.00
2023-04-02T05:29:24.732Z,50.00
2023-04-02T05:30:24.708Z,49.00
2023-04-02T05:31:24.724Z,45.00
2023-04-02T05:32:24.721Z,48.00
2023-04-02T05:33:24.706Z,43.00
2023-04-02T05:34:24.733Z,44.00
2023-04-02T05:35:24.720Z,55.00
2023-04-02T05:36:24.749Z,65.00
2023-04-02T05:37:24.650Z,71.00
2023-04-02T05:38:24.631Z,75.00
2023-04-02T05:39:24.627Z,77.00
2023-04-02T05:40:24.635Z,81.00
2023-04-02T05:41:24.606Z,80.00
2023-04-02T05:42:24.600Z,80.00
2023-04-02T05:43:24.586Z,84.00
2023-04-02T05:44:24.564Z,83.00
2023-04-02T05:45:24.577Z,80.00
2023-04-02T05:46:24.683Z,72.00
2023-04-02T05:47:24.550Z,90.00
2023-04-02T05:48:24.536Z,103.00
2023-04-02T05:49:24.523Z,121.00
2023-04-02T05:50:24.520Z,121.00
2023-04-02T05:51:24.505Z,124.00
2023-04-02T05:52:24.629Z,130.00
2023-04-02T05:53:24.485Z,140.00
2023-04-02T05:54:24.484Z,143.00
2023-04-02T05:55:24.473Z,144.00
2023-04-02T05:56:24.473Z,146.00
2023-04-02T05:57:35.768Z,144.00
2023-04-02T05:58:35.388Z,146.00
2023-04-02T05:59:24.455Z,142.00
2023-04-02T06:00:24.409Z,146.00
2023-04-02T06:01:24.404Z,145.00
2023-04-02T06:02:24.508Z,143.00
2023-04-02T06:03:24.447Z,141.00
2023-04-02T06:04:24.407Z,142.00
2023-04-02T06:05:24.360Z,142.00
2023-04-02T06:06:24.346Z,149.00
2023-04-02T06:07:24.362Z,154.00
2023-04-02T06:08:24.319Z,156.00
2023-04-02T06:09:24.384Z,156.00
2023-04-02T06:10:25.002Z,155.00
2023-04-02T06:11:24.322Z,157.00
2023-04-02T06:12:24.290Z,162.00
2023-04-02T06:13:24.281Z,168.00
2023-04-02T06:14:24.298Z,173.00
2023-04-02T06:15:24.249Z,174.00
2023-04-02T06:16:24.415Z,185.00
2023-04-02T06:17:24.292Z,185.00
2023-04-02T06:18:24.221Z,189.00
2023-04-02T06:19:24.229Z,198.00
2023-04-02T06:20:24.212Z,205.00
2023-04-02T06:21:24.192Z,207.00
2023-04-02T06:22:24.249Z,304.00
2023-04-02T06:23:24.174Z,74.00
2023-04-02T06:24:24.188Z,230.00
2023-04-02T06:25:24.168Z,238.00
2023-04-02T06:26:24.145Z,247.00
2023-04-02T06:27:24.135Z,251.00
2023-04-02T06:28:24.294Z,265.00
2023-04-02T06:29:24.147Z,382.00
2023-04-02T06:30:24.102Z,212.00
2023-04-02T06:31:24.142Z,232.00
2023-04-02T06:32:24.113Z,263.00
2023-04-02T06:33:24.057Z,289.00
2023-04-02T06:34:24.113Z,348.00
2023-04-02T06:35:24.045Z,461.00
2023-04-02T06:36:24.067Z,627.00
2023-04-02T06:37:31.572Z,850.00
2023-04-02T06:38:24.013Z,1190.00
2023-04-02T06:39:24.023Z,1776.00
2023-04-02T06:40:24.037Z,2387.00
2023-04-02T06:41:24.007Z,3111.00
2023-04-02T06:42:23.978Z,3547.00
2023-04-02T06:43:23.962Z,3798.00
2023-04-02T06:44:24.035Z,3989.00
2023-04-02T06:45:23.952Z,4137.00
2023-04-02T06:46:24.093Z,4126.00
2023-04-02T06:47:23.946Z,4070.00
2023-04-02T06:48:23.925Z,2070.00
2023-04-02T06:49:23.903Z,2406.00
2023-04-02T06:50:23.905Z,12294.00
2023-04-02T06:51:23.893Z,11651.00
2023-04-02T06:52:24.026Z,8450.00
2023-04-02T06:53:23.857Z,5264.00
2023-04-02T06:54:23.861Z,2630.00
2023-04-02T06:55:23.890Z,1289.00
2023-04-02T06:56:23.850Z,1160.00
2023-04-02T06:57:23.923Z,948.00
2023-04-02T06:58:23.966Z,1420.00
2023-04-02T06:59:23.802Z,1636.00
2023-04-02T07:00:23.798Z,1879.00
2023-04-02T07:01:23.831Z,2201.00
2023-04-02T07:02:23.770Z,2463.00
2023-04-02T07:03:23.748Z,1484.00
2023-04-02T07:04:23.897Z,5556.00
2023-04-02T07:05:23.736Z,14315.00
2023-04-02T07:06:23.734Z,15163.00
2023-04-02T07:07:23.712Z,14484.00
2023-04-02T07:08:23.779Z,16448.00
2023-04-02T07:09:23.693Z,14323.00
2023-04-02T07:10:23.717Z,13005.00
2023-04-02T07:11:23.681Z,15894.00
2023-04-02T07:12:23.684Z,15033.00
2023-04-02T07:13:23.678Z,13837.00
2023-04-02T07:14:23.655Z,11893.00
2023-04-02T07:15:23.631Z,15218.00
2023-04-02T07:16:23.787Z,12327.00
2023-04-02T07:17:23.633Z,6901.00
2023-04-02T07:18:23.609Z,10892.00
2023-04-02T07:19:23.589Z,7220.00
2023-04-02T07:20:23.590Z,2471.00
2023-04-02T07:21:23.621Z,957.00
2023-04-02T07:22:23.626Z,877.00
2023-04-02T07:23:23.541Z,850.00
2023-04-02T07:24:23.545Z,935.00
2023-04-02T07:25:23.527Z,1044.00
2023-04-02T07:26:23.518Z,1214.00
2023-04-02T07:27:23.519Z,1407.00
2023-04-02T07:28:23.696Z,727.00
2023-04-02T07:29:23.484Z,1137.00
2023-04-02T07:30:23.477Z,5642.00
2023-04-02T07:31:23.482Z,8668.00
2023-04-02T07:32:23.453Z,10470.00
2023-04-02T07:33:23.454Z,12494.00
2023-04-02T07:34:23.479Z,13826.00
2023-04-02T07:35:23.435Z,11423.00
2023-04-02T07:36:24.411Z,13287.00
2023-04-02T07:37:23.406Z,11324.00
2023-04-02T07:38:23.389Z,10884.00
2023-04-02T07:39:23.380Z,10662.00
2023-04-02T07:40:23.426Z,9765.00
2023-04-02T07:41:23.360Z,8167.00
2023-04-02T07:42:23.353Z,5254.00
2023-04-02T07:43:23.340Z,2736.00
2023-04-02T07:44:23.337Z,1569.00
2023-04-02T07:45:23.318Z,668.00
2023-04-02T07:46:23.478Z,561.00
2023-04-02T07:47:23.295Z,492.00
2023-04-02T07:48:23.303Z,421.00
2023-04-02T07:49:23.285Z,367.00
2023-04-02T07:50:23.332Z,323.00
2023-04-02T07:51:23.261Z,290.00
2023-04-02T07:52:23.422Z,274.00
2023-04-02T07:53:23.255Z,266.00
2023-04-02T07:54:23.256Z,262.00
2023-04-02T07:55:23.211Z,255.00
2023-04-02T07:56:23.213Z,248.00
2023-04-02T07:57:23.232Z,245.00
2023-04-02T07:58:23.403Z,243.00
2023-04-02T07:59:23.179Z,231.00
2023-04-02T08:00:23.170Z,235.00
2023-04-02T08:01:23.158Z,236.00
2023-04-02T08:02:23.248Z,229.00
2023-04-02T08:03:23.199Z,231.00
2023-04-02T08:04:23.422Z,230.00
2023-04-02T08:05:23.137Z,232.00
2023-04-02T08:06:23.107Z,227.00
2023-04-02T08:07:23.099Z,226.00
2023-04-02T08:08:23.104Z,225.00
2023-04-02T08:09:23.078Z,223.00
2023-04-02T08:10:23.117Z,222.00
2023-04-02T08:11:23.087Z,210.00
2023-04-02T08:12:23.062Z,218.00
2023-04-02T08:13:23.051Z,216.00
2023-04-02T08:14:23.022Z,217.00
2023-04-02T08:15:23.015Z,217.00
2023-04-02T08:16:23.225Z,215.00
2023-04-02T08:17:23.005Z,213.00
2023-04-02T08:18:22.991Z,209.00
2023-04-02T08:19:22.990Z,217.00
2023-04-02T08:20:22.968Z,198.00
2023-04-02T08:21:22.957Z,194.00
2023-04-02T08:22:22.992Z,192.00
2023-04-02T08:23:22.947Z,197.00
2023-04-02T08:24:22.942Z,223.00
2023-04-02T08:25:22.932Z,185.00
2023-04-02T08:26:22.906Z,181.00
2023-04-02T08:27:22.890Z,186.00
2023-04-02T08:28:23.052Z,187.00
2023-04-02T08:29:22.886Z,181.00
2023-04-02T08:30:22.868Z,182.00
2023-04-02T08:31:22.904Z,180.00
2023-04-02T08:32:22.848Z,181.00
2023-04-02T08:33:22.844Z,191.00
2023-04-02T08:34:22.858Z,176.00
2023-04-02T08:35:22.825Z,174.00
2023-04-02T08:36:22.859Z,184.00
2023-04-02T08:37:22.786Z,182.00
2023-04-02T08:38:22.804Z,183.00
2023-04-02T08:39:22.772Z,176.00
2023-04-02T08:40:22.920Z,174.00
2023-04-02T08:41:22.750Z,185.00
2023-04-02T08:42:22.790Z,252.00
2023-04-02T08:43:23.757Z,123.00
2023-04-02T08:44:22.766Z,49.00
2023-04-02T08:45:24.888Z,49.00
2023-04-02T08:46:23.068Z,44.00
2023-04-02T08:47:22.698Z,40.00
2023-04-02T08:48:22.700Z,40.00
2023-04-02T08:49:22.671Z,40.00
2023-04-02T08:50:22.654Z,40.00
2023-04-02T08:51:22.675Z,39.00
2023-04-02T08:52:22.794Z,39.00
2023-04-02T08:53:22.642Z,39.00
2023-04-02T08:54:22.632Z,39.00
2023-04-02T08:55:22.610Z,37.00
2023-04-02T08:56:22.598Z,39.00
2023-04-02T08:57:22.621Z,37.00
2023-04-02T08:58:22.746Z,37.00
2023-04-02T08:59:22.563Z,35.00
2023-04-02T09:00:22.556Z,33.00
2023-04-02T09:01:22.599Z,33.00
2023-04-02T09:02:22.590Z,33.00
2023-04-02T09:03:22.524Z,33.00
2023-04-02T09:04:22.619Z,33.00
2023-04-02T09:05:22.492Z,33.00
2023-04-02T09:06:22.494Z,33.00
2023-04-02T09:07:22.489Z,33.00
2023-04-02T09:08:22.478Z,33.00
2023-04-02T09:09:22.460Z,33.00
2023-04-02T09:10:22.769Z,35.00
2023-04-02T09:11:22.438Z,37.00
2023-04-02T09:12:22.438Z,37.00
2023-04-02T09:13:22.417Z,39.00
2023-04-02T09:14:22.407Z,38.00
2023-04-02T09:15:22.631Z,38.00
2023-04-02T09:16:22.672Z,38.00
2023-04-02T09:17:22.385Z,38.00
2023-04-02T09:18:22.402Z,39.00
2023-04-02T09:19:22.352Z,40.00
2023-04-02T09:20:22.369Z,38.00
2023-04-02T09:21:22.362Z,37.00
2023-04-02T09:22:22.458Z,45.00
2023-04-02T09:23:22.320Z,36.00
2023-04-02T09:24:28.847Z,19.00
2023-04-02T09:25:22.317Z,50.00
2023-04-02T09:26:22.290Z,88.00
2023-04-02T09:27:23.937Z,95.00
2023-04-02T09:28:22.412Z,87.00
2023-04-02T09:29:22.267Z,98.00
2023-04-02T09:30:22.255Z,65.00
2023-04-02T09:31:22.323Z,93.00
2023-04-02T09:32:22.230Z,97.00
2023-04-02T09:33:22.214Z,110.00
2023-04-02T09:34:22.349Z,112.00
2023-04-02T09:35:26.221Z,99.00
2023-04-02T09:36:22.291Z,105.00
2023-04-02T09:37:29.533Z,105.00
2023-04-02T09:38:29.344Z,116.00
2023-04-02T09:39:22.150Z,79.00
2023-04-02T09:40:22.322Z,88.00
2023-04-02T09:41:22.176Z,113.00
2023-04-02T09:42:29.566Z,98.00
2023-04-02T09:43:28.706Z,92.00
2023-04-02T09:44:22.105Z,97.00
2023-04-02T09:45:22.088Z,106.00
2023-04-02T09:46:22.621Z,101.00
2023-04-02T09:47:22.109Z,110.00
2023-04-02T09:48:22.069Z,118.00
2023-04-02T09:49:22.074Z,104.00
2023-04-02T09:50:22.079Z,90.00
2023-04-02T09:51:22.040Z,99.00
2023-04-02T09:52:22.170Z,76.00
2023-04-02T09:53:22.011Z,109.00
2023-04-02T09:54:22.018Z,74.00
2023-04-02T09:55:22.015Z,107.00
2023-04-02T09:56:22.008Z,84.00
2023-04-02T09:57:22.014Z,85.00
2023-04-02T09:58:22.107Z,86.00
2023-04-02T09:59:22.049Z,104.00
2023-04-02T10:00:31.514Z,93.00
2023-04-02T10:01:21.985Z,79.00
2023-04-02T10:02:21.921Z,96.00
2023-04-02T10:03:21.929Z,96.00
2023-04-02T10:04:23.408Z,96.00
2023-04-02T10:05:39.016Z,96.00
2023-04-02T10:06:21.874Z,92.00
2023-04-02T10:07:21.867Z,92.00
2023-04-02T10:08:21.850Z,104.00
2023-04-02T10:09:21.851Z,105.00
2023-04-02T10:10:22.436Z,101.00
2023-04-02T10:11:21.821Z,102.00
2023-04-02T10:12:21.824Z,101.00
2023-04-02T10:13:21.885Z,102.00
2023-04-02T10:14:21.807Z,99.00
2023-04-02T10:15:21.770Z,99.00
2023-04-02T10:16:23.389Z,95.00
2023-04-02T10:17:21.974Z,93.00
2023-04-02T10:18:21.753Z,92.00
2023-04-02T10:19:21.744Z,94.00
2023-04-02T10:20:21.743Z,95.00
2023-04-02T10:21:21.725Z,94.00
2023-04-02T10:22:21.765Z,95.00
2023-04-02T10:23:21.700Z,95.00
2023-04-02T10:24:21.691Z,94.00
2023-04-02T10:25:21.689Z,94.00
2023-04-02T10:26:21.662Z,94.00
2023-04-02T10:27:21.660Z,93.00
2023-04-02T10:28:21.786Z,95.00
2023-04-02T10:29:21.648Z,96.00
2023-04-02T10:30:21.616Z,98.00
2023-04-02T10:31:21.716Z,106.00
2023-04-02T10:32:21.613Z,48.00
2023-04-02T10:33:21.606Z,95.00
2023-04-02T10:34:21.604Z,93.00
2023-04-02T10:35:21.584Z,95.00
2023-04-02T10:36:21.575Z,115.00
2023-04-02T10:37:28.598Z,66.00
2023-04-02T10:38:21.544Z,80.00
2023-04-02T10:39:21.559Z,56.00
2023-04-02T10:40:21.566Z,80.00
2023-04-02T10:41:21.537Z,79.00
2023-04-02T10:42:21.535Z,81.00
2023-04-02T10:43:21.496Z,95.00
2023-04-02T10:44:21.480Z,42.00
2023-04-02T10:45:21.491Z,75.00
2023-04-02T10:46:24.496Z,83.00
2023-04-02T10:47:21.456Z,84.00
2023-04-02T10:48:21.468Z,86.00
2023-04-02T10:49:21.458Z,82.00
2023-04-02T10:50:21.425Z,80.00
2023-04-02T10:51:21.416Z,81.00
2023-04-02T10:52:21.450Z,79.00
2023-04-02T10:53:21.414Z,79.00
2023-04-02T10:54:21.374Z,50.00
2023-04-02T10:55:21.388Z,78.00
2023-04-02T10:56:21.366Z,78.00
2023-04-02T10:57:21.398Z,78.00
2023-04-02T10:58:21.473Z,72.00
2023-04-02T10:59:21.335Z,76.00
2023-04-02T11:00:21.311Z,81.00
2023-04-02T11:01:21.349Z,75.00
2023-04-02T11:02:21.313Z,78.00
2023-04-02T11:03:21.377Z,78.00
2023-04-02T11:04:21.323Z,79.00
2023-04-02T11:05:21.280Z,73.00
2023-04-02T11:06:21.274Z,74.00
2023-04-02T11:07:21.258Z,74.00
2023-04-02T11:08:21.247Z,74.00
2023-04-02T11:09:21.231Z,73.00
2023-04-02T11:10:21.241Z,75.00
2023-04-02T11:11:21.209Z,74.00
2023-04-02T11:12:21.185Z,74.00
2023-04-02T11:13:21.197Z,73.00
2023-04-02T11:14:21.180Z,75.00
2023-04-02T11:15:21.174Z,104.00
2023-04-02T11:16:21.328Z,80.00
2023-04-02T11:17:21.221Z,67.00
2023-04-02T11:18:21.165Z,77.00
2023-04-02T11:19:21.129Z,76.00
2023-04-02T11:20:21.117Z,74.00
2023-04-02T11:21:21.098Z,75.00
2023-04-02T11:22:21.215Z,72.00
2023-04-02T11:23:21.095Z,72.00
2023-04-02T11:24:21.063Z,72.00
2023-04-02T11:25:21.074Z,82.00
2023-04-02T11:26:21.070Z,60.00
2023-04-02T11:27:21.046Z,73.00
2023-04-02T11:28:21.506Z,74.00
2023-04-02T11:29:21.075Z,74.00
2023-04-02T11:30:21.008Z,73.00
2023-04-02T11:31:21.032Z,73.00
2023-04-02T11:32:20.995Z,72.00
2023-04-02T11:33:29.994Z,74.00
2023-04-02T11:34:21.015Z,72.00
2023-04-02T11:35:20.961Z,70.00
2023-04-02T11:36:20.985Z,69.00
2023-04-02T11:37:20.947Z,73.00
2023-04-02T11:38:20.930Z,74.00
2023-04-02T11:39:20.912Z,70.00
2023-04-02T11:40:21.056Z,71.00
2023-04-02T11:41:20.898Z,72.00
2023-04-02T11:42:20.933Z,69.00
2023-04-02T11:43:20.936Z,62.00
2023-04-02T11:44:20.865Z,68.00
2023-04-02T11:45:21.167Z,65.00
2023-04-02T11:46:20.929Z,82.00
2023-04-02T11:47:20.931Z,42.00
2023-04-02T11:48:20.818Z,67.00
2023-04-02T11:49:20.812Z,67.00
2023-04-02T11:50:20.798Z,68.00
2023-04-02T11:51:21.319Z,72.00
2023-04-02T11:52:20.912Z,68.00
2023-04-02T11:53:20.780Z,68.00
2023-04-02T11:54:20.760Z,69.00
2023-04-02T11:55:20.901Z,71.00
2023-04-02T11:56:20.735Z,72.00
2023-04-02T11:57:21.575Z,60.00
2023-04-02T11:58:20.843Z,58.00
2023-04-02T11:59:20.796Z,74.00
2023-04-02T12:00:20.936Z,58.00
2023-04-02T12:01:20.893Z,69.00
2023-04-02T12:02:20.697Z,70.00
2023-04-02T12:03:22.015Z,63.00
2023-04-02T12:04:21.129Z,68.00
2023-04-02T12:05:20.709Z,71.00
2023-04-02T12:06:20.623Z,40.00
2023-04-02T12:07:20.620Z,25.00
2023-04-02T12:08:20.625Z,60.00
2023-04-02T12:09:20.876Z,64.00
2023-04-02T12:10:20.758Z,63.00
2023-04-02T12:11:20.580Z,64.00
2023-04-02T12:12:20.899Z,65.00
2023-04-02T12:13:20.964Z,65.00
2023-04-02T12:14:20.559Z,64.00
2023-04-02T12:15:20.562Z,65.00
2023-04-02T12:16:20.703Z,67.00
2023-04-02T12:17:20.527Z,68.00
2023-04-02T12:18:20.497Z,64.00
2023-04-02T12:19:20.515Z,65.00
2023-04-02T12:20:20.506Z,63.00
2023-04-02T12:21:20.487Z,61.00
2023-04-02T12:22:20.532Z,61.00
2023-04-02T12:23:20.460Z,60.00
2023-04-02T12:24:20.443Z,65.00
2023-04-02T12:25:20.430Z,66.00
2023-04-02T12:26:22.584Z,65.00
2023-04-02T12:27:20.407Z,61.00
2023-04-02T12:28:20.542Z,57.00
2023-04-02T12:29:20.404Z,55.00
2023-04-02T12:30:20.387Z,56.00
2023-04-02T12:31:20.380Z,56.00
2023-04-02T12:32:20.343Z,55.00
2023-04-02T12:33:20.402Z,56.00
2023-04-02T12:34:20.368Z,57.00
2023-04-02T12:35:20.333Z,59.00
2023-04-02T12:36:20.361Z,59.00
2023-04-02T12:37:20.308Z,53.00
2023-04-02T12:38:20.289Z,51.00
2023-04-02T12:39:20.281Z,51.00
2023-04-02T12:40:20.436Z,53.00
2023-04-02T12:41:20.272Z,53.00
2023-04-02T12:42:20.264Z,51.00
2023-04-02T12:43:20.252Z,51.00
2023-04-02T12:44:20.227Z,51.00
2023-04-02T12:45:20.219Z,52.00
2023-04-02T12:46:20.262Z,55.00
2023-04-02T12:47:20.204Z,47.00
2023-04-02T12:48:20.182Z,51.00
2023-04-02T12:49:20.201Z,52.00
2023-04-02T12:50:20.173Z,54.00
2023-04-02T12:51:20.161Z,55.00
2023-04-02T12:52:20.181Z,52.00
2023-04-02T12:53:20.158Z,51.00